createdAt,value
2017-07-09T00:01:10.574Z,6.47
2017-07-09T00:03:37.357Z,7.90
2017-07-09T00:06:03.384Z,7.23
2017-07-09T00:08:29.422Z,6.60
2017-07-09T00:10:56.222Z,8.27
2017-07-09T00:13:22.273Z,6.87
2017-07-09T00:15:48.310Z,6.77
2017-07-09T00:18:14.357Z,6.60
2017-07-09T00:20:40.425Z,5.73
2017-07-09T00:23:06.452Z,7.10
2017-07-09T00:25:32.485Z,5.80
2017-07-09T00:27:58.533Z,7.63
2017-07-09T00:30:24.574Z,7.40
2017-07-09T00:32:50.601Z,7.57
2017-07-09T00:35:16.641Z,6.33
2017-07-09T00:37:42.658Z,6.90
2017-07-09T00:40:08.689Z,6.70
2017-07-09T00:42:34.729Z,7.27
2017-07-09T00:45:00.777Z,6.77
2017-07-09T00:47:27.558Z,7.40
2017-07-09T00:49:53.586Z,7.53
2017-07-09T00:52:19.654Z,7.40
2017-07-09T00:54:45.677Z,7.80
2017-07-09T00:57:11.725Z,7.70
2017-07-09T00:59:37.754Z,7.77
2017-07-09T01:02:04.534Z,9.10
2017-07-09T01:04:30.570Z,8.50
2017-07-09T01:06:56.610Z,6.87
2017-07-09T01:09:22.661Z,6.77
2017-07-09T01:11:48.722Z,6.37
2017-07-09T01:14:14.781Z,7.17
2017-07-09T01:16:40.805Z,7.63
2017-07-09T01:19:06.842Z,9.00
2017-07-09T01:21:32.909Z,7.50
2017-07-09T01:23:58.949Z,7.20
2017-07-09T01:26:25.724Z,6.50
2017-07-09T01:28:51.778Z,7.50
2017-07-09T01:31:18.545Z,6.43
2017-07-09T01:33:44.573Z,6.40
2017-07-09T01:36:10.613Z,6.93
2017-07-09T01:38:37.467Z,6.07
2017-07-09T01:41:03.516Z,6.50
2017-07-09T01:43:29.554Z,6.57
2017-07-09T01:45:55.596Z,7.37
2017-07-09T01:48:21.645Z,8.00
2017-07-09T01:50:47.686Z,7.43
2017-07-09T01:53:14.470Z,8.27
2017-07-09T01:55:40.510Z,9.43
2017-07-09T01:58:06.574Z,8.70
2017-07-09T02:00:32.641Z,9.73
2017-07-09T02:02:58.692Z,8.43
2017-07-09T02:05:24.734Z,7.57
2017-07-09T02:07:50.777Z,7.07
2017-07-09T02:10:17.558Z,6.47
2017-07-09T02:12:43.606Z,7.03
2017-07-09T02:15:09.633Z,6.60
2017-07-09T02:17:35.671Z,5.93
2017-07-09T02:20:01.705Z,6.17
2017-07-09T02:22:27.748Z,6.10
2017-07-09T02:24:53.870Z,6.70
2017-07-09T02:27:20.681Z,6.10
2017-07-09T02:29:47.449Z,6.67
2017-07-09T02:32:13.504Z,6.30
2017-07-09T02:34:39.549Z,6.37
2017-07-09T02:37:05.592Z,5.60
2017-07-09T02:39:31.638Z,7.40
2017-07-09T02:41:57.673Z,7.50
2017-07-09T02:44:23.725Z,6.70
2017-07-09T02:46:49.757Z,6.97
2017-07-09T02:49:15.801Z,7.20
2017-07-09T02:51:41.829Z,7.70
2017-07-09T02:54:07.859Z,6.27
2017-07-09T02:56:33.925Z,6.50
2017-07-09T02:58:59.972Z,6.77
2017-07-09T03:01:26.009Z,6.23
2017-07-09T03:03:52.030Z,5.90
2017-07-09T03:06:18.841Z,6.83
2017-07-09T03:08:44.881Z,6.00
2017-07-09T03:11:11.660Z,5.57
2017-07-09T03:13:37.717Z,6.27
2017-07-09T03:16:03.777Z,5.27
2017-07-09T03:18:29.817Z,6.33
2017-07-09T03:20:56.670Z,5.20
2017-07-09T03:23:22.710Z,5.80
2017-07-09T03:25:48.777Z,5.27
2017-07-09T03:28:14.829Z,5.33
2017-07-09T03:30:40.866Z,5.50
2017-07-09T03:33:06.897Z,5.90
2017-07-09T03:35:33.670Z,5.27
2017-07-09T03:37:59.729Z,5.00
2017-07-09T03:40:26.502Z,5.33
2017-07-09T03:42:52.548Z,4.77
2017-07-09T03:45:19.325Z,5.40
2017-07-09T03:47:45.365Z,5.07
2017-07-09T03:50:11.397Z,4.70
2017-07-09T03:52:38.204Z,4.80
2017-07-09T03:55:04.269Z,5.70
2017-07-09T03:57:30.334Z,5.60
2017-07-09T03:59:56.385Z,4.93
2017-07-09T04:02:22.417Z,5.50
2017-07-09T04:04:48.457Z,4.20
2017-07-09T04:07:14.481Z,4.37
2017-07-09T04:09:41.253Z,5.97
2017-07-09T04:12:07.282Z,5.50
2017-07-09T04:14:48.276Z,4.03
2017-07-09T04:17:15.029Z,5.10
2017-07-09T04:19:41.065Z,3.97
2017-07-09T04:22:07.105Z,4.30
2017-07-09T04:24:33.173Z,4.50
2017-07-09T04:26:59.241Z,4.17
2017-07-09T04:29:26.005Z,4.50
2017-07-09T04:31:52.036Z,5.07
2017-07-09T04:34:18.054Z,4.00
2017-07-09T04:36:44.082Z,4.13
2017-07-09T04:39:10.093Z,3.73
2017-07-09T04:41:36.112Z,4.03
2017-07-09T04:44:02.885Z,3.60
2017-07-09T04:46:28.925Z,4.10
2017-07-09T04:48:54.969Z,3.43
2017-07-09T04:51:20.989Z,4.30
2017-07-09T04:53:47.006Z,3.67
2017-07-09T04:56:13.058Z,4.90
2017-07-09T04:58:39.098Z,4.00
2017-07-09T05:01:05.876Z,4.17
2017-07-09T05:03:31.911Z,4.17
2017-07-09T05:05:58.672Z,3.73
2017-07-09T05:08:24.698Z,4.10
2017-07-09T05:10:50.738Z,3.57
2017-07-09T05:13:16.765Z,3.97
2017-07-09T05:15:42.809Z,3.03
2017-07-09T05:18:08.853Z,3.97
2017-07-09T05:20:34.881Z,3.33
2017-07-09T05:23:00.924Z,3.17
2017-07-09T05:25:26.947Z,3.40
2017-07-09T05:27:52.982Z,2.97
2017-07-09T05:30:19.013Z,2.77
2017-07-09T05:32:45.050Z,2.93
2017-07-09T05:35:11.850Z,3.27
2017-07-09T05:37:37.894Z,2.37
2017-07-09T05:40:03.965Z,2.90
2017-07-09T05:42:30.134Z,2.50
2017-07-09T05:44:56.214Z,2.60
2017-07-09T05:47:22.985Z,4.37
2017-07-09T05:49:49.018Z,2.80
2017-07-09T05:52:15.082Z,2.87
2017-07-09T05:54:41.126Z,2.30
2017-07-09T05:57:07.162Z,2.27
2017-07-09T05:59:33.929Z,2.83
2017-07-09T06:01:59.998Z,2.40
2017-07-09T06:04:26.117Z,3.00
2017-07-09T06:06:52.161Z,2.50
2017-07-09T06:09:18.180Z,2.23
2017-07-09T06:11:44.208Z,3.17
2017-07-09T06:14:10.242Z,2.70
2017-07-09T06:16:36.258Z,2.60
2017-07-09T06:19:04.302Z,3.10
2017-07-09T06:21:31.081Z,2.50
2017-07-09T06:23:57.101Z,2.87
2017-07-09T06:26:23.113Z,1.90
2017-07-09T06:28:49.183Z,2.50
2017-07-09T06:31:15.268Z,3.07
2017-07-09T06:33:42.060Z,2.73
2017-07-09T06:36:08.104Z,2.17
2017-07-09T06:38:34.141Z,2.20
2017-07-09T06:41:00.162Z,2.67
2017-07-09T06:43:26.204Z,2.23
2017-07-09T06:45:52.233Z,2.13
2017-07-09T06:48:18.246Z,2.43
2017-07-09T06:50:45.026Z,3.27
2017-07-09T06:53:11.088Z,2.50
2017-07-09T06:55:37.848Z,2.30
2017-07-09T06:58:04.622Z,1.93
2017-07-09T07:00:30.696Z,2.73
2017-07-09T07:02:56.739Z,3.60
2017-07-09T07:05:22.778Z,3.20
2017-07-09T07:07:48.834Z,2.80
2017-07-09T07:10:15.617Z,2.10
2017-07-09T07:12:41.645Z,2.80
2017-07-09T07:15:08.589Z,2.60
2017-07-09T07:17:34.634Z,2.20
2017-07-09T07:20:00.657Z,2.00
2017-07-09T07:22:26.700Z,2.37
2017-07-09T07:24:52.747Z,2.53
2017-07-09T07:27:18.781Z,2.20
2017-07-09T07:29:44.817Z,2.00
2017-07-09T07:32:10.886Z,1.80
2017-07-09T07:34:36.909Z,2.33
2017-07-09T07:37:02.954Z,2.00
2017-07-09T07:39:28.982Z,2.10
2017-07-09T07:41:55.038Z,2.07
2017-07-09T07:44:21.077Z,1.57
2017-07-09T07:46:47.093Z,2.00
2017-07-09T07:49:13.884Z,2.47
2017-07-09T07:51:39.909Z,3.60
2017-07-09T07:54:05.962Z,2.07
2017-07-09T07:56:31.992Z,1.83
2017-07-09T07:58:58.031Z,2.00
2017-07-09T08:01:24.062Z,1.80
2017-07-09T08:03:50.854Z,2.67
2017-07-09T08:06:16.907Z,2.13
2017-07-09T08:08:43.678Z,1.90
2017-07-09T08:11:09.704Z,2.10
2017-07-09T08:13:35.797Z,2.43
2017-07-09T08:16:02.526Z,2.00
2017-07-09T08:18:28.546Z,2.43
2017-07-09T08:20:54.578Z,1.90
2017-07-09T08:23:21.344Z,2.37
2017-07-09T08:25:47.401Z,1.47
2017-07-09T08:28:13.419Z,1.57
2017-07-09T08:30:39.438Z,2.17
2017-07-09T08:33:06.202Z,2.00
2017-07-09T08:35:32.246Z,2.10
2017-07-09T08:37:58.282Z,2.20
2017-07-09T08:40:25.073Z,2.10
2017-07-09T08:42:51.096Z,2.37
2017-07-09T08:45:24.185Z,3.10
2017-07-09T08:47:51.049Z,1.90
2017-07-09T08:50:17.114Z,2.00
2017-07-09T08:52:43.151Z,2.13
2017-07-09T08:55:09.900Z,2.50
2017-07-09T08:57:35.938Z,2.43
2017-07-09T09:00:01.981Z,2.60
2017-07-09T09:02:28.808Z,1.97
2017-07-09T09:04:55.577Z,1.53
2017-07-09T09:07:21.619Z,2.10
2017-07-09T09:09:47.653Z,2.73
2017-07-09T09:12:13.727Z,3.83
2017-07-09T09:14:39.760Z,1.70
2017-07-09T09:17:06.661Z,1.70
2017-07-09T09:19:32.694Z,1.73
2017-07-09T09:21:59.467Z,1.70
2017-07-09T09:27:22.932Z,1.80
2017-07-09T09:29:48.978Z,1.57
2017-07-09T09:32:15.758Z,1.80
2017-07-09T09:34:41.798Z,2.10
2017-07-09T09:37:07.841Z,2.30
2017-07-09T09:39:34.622Z,2.13
2017-07-09T09:42:00.682Z,1.93
2017-07-09T09:44:26.725Z,2.30
2017-07-09T09:46:52.746Z,2.00
2017-07-09T09:49:18.778Z,1.80
2017-07-09T09:51:44.832Z,1.70
2017-07-09T09:54:11.247Z,1.90
2017-07-09T09:56:37.353Z,6.00
2017-07-09T09:59:03.405Z,4.13
2017-07-09T10:01:29.510Z,1.83
2017-07-09T10:03:55.554Z,2.43
2017-07-09T10:06:22.353Z,2.37
2017-07-09T10:08:48.394Z,1.70
2017-07-09T10:11:15.239Z,2.37
2017-07-09T10:13:41.269Z,3.90
2017-07-09T10:16:07.339Z,1.70
2017-07-09T10:18:34.113Z,2.60
2017-07-09T10:21:00.145Z,2.17
2017-07-09T10:23:26.165Z,1.87
2017-07-09T10:25:52.233Z,1.60
2017-07-09T10:28:18.298Z,2.40
2017-07-09T10:30:45.087Z,2.27
2017-07-09T10:33:11.147Z,2.23
2017-07-09T10:35:44.202Z,2.40
2017-07-09T10:38:10.247Z,1.53
2017-07-09T10:40:36.306Z,1.70
2017-07-09T10:43:02.357Z,1.90
2017-07-09T10:45:28.386Z,2.27
2017-07-09T10:47:54.462Z,1.93
2017-07-09T10:50:21.231Z,1.30
2017-07-09T10:52:47.277Z,1.80
2017-07-09T10:55:13.323Z,2.67
2017-07-09T10:57:39.373Z,1.70
2017-07-09T11:00:05.430Z,2.17
2017-07-09T11:02:31.465Z,1.83
2017-07-09T11:04:57.490Z,2.33
2017-07-09T11:07:23.529Z,2.70
2017-07-09T11:09:49.578Z,2.60
2017-07-09T11:12:15.826Z,2.27
2017-07-09T11:14:41.878Z,1.47
2017-07-09T11:17:07.925Z,1.70
2017-07-09T11:19:33.982Z,1.80
2017-07-09T11:22:00.765Z,1.90
2017-07-09T11:24:26.791Z,2.03
2017-07-09T11:26:52.837Z,2.10
2017-07-09T11:29:19.612Z,2.03
2017-07-09T11:31:45.649Z,1.80
2017-07-09T11:34:12.356Z,1.40
2017-07-09T11:36:38.638Z,1.70
2017-07-09T11:39:04.753Z,1.83
2017-07-09T11:41:30.806Z,1.50
2017-07-09T11:43:56.837Z,1.97
2017-07-09T11:46:22.874Z,1.40
2017-07-09T11:48:49.002Z,1.90
2017-07-09T11:51:15.079Z,2.37
2017-07-09T11:53:41.139Z,1.70
2017-07-09T11:56:07.198Z,7.63
2017-07-09T11:58:33.237Z,3.17
2017-07-09T12:00:59.284Z,2.40
2017-07-09T12:03:25.341Z,1.50
2017-07-09T12:05:51.367Z,1.77
2017-07-09T12:08:17.455Z,1.60
2017-07-09T12:10:43.479Z,2.43
2017-07-09T12:13:09.519Z,1.93
2017-07-09T12:15:35.539Z,1.73
2017-07-09T12:18:02.312Z,2.10
2017-07-09T12:20:28.329Z,1.63
2017-07-09T12:22:54.361Z,2.40
2017-07-09T12:25:20.373Z,1.83
2017-07-09T12:27:46.397Z,1.73
2017-07-09T12:30:12.426Z,2.17
2017-07-09T12:32:39.177Z,1.40
2017-07-09T12:35:05.235Z,1.57
2017-07-09T12:37:31.258Z,1.63
2017-07-09T12:39:58.029Z,2.40
2017-07-09T12:42:24.051Z,1.93
2017-07-09T12:44:50.077Z,1.80
2017-07-09T12:47:16.132Z,2.10
2017-07-09T12:49:42.153Z,1.50
2017-07-09T12:52:08.318Z,1.60
2017-07-09T12:54:34.357Z,2.10
2017-07-09T12:57:01.153Z,2.10
2017-07-09T12:59:27.942Z,2.40
2017-07-09T13:01:53.969Z,2.80
2017-07-09T13:04:19.997Z,2.30
2017-07-09T13:06:46.083Z,2.70
2017-07-09T13:09:12.134Z,2.67
2017-07-09T13:11:38.942Z,2.47
2017-07-09T13:14:04.961Z,2.77
2017-07-09T13:16:31.735Z,2.47
2017-07-09T13:18:57.762Z,2.93
2017-07-09T13:21:23.827Z,2.20
2017-07-09T13:23:49.856Z,2.53
2017-07-09T13:26:15.876Z,2.00
2017-07-09T13:28:41.905Z,2.80
2017-07-09T13:31:07.959Z,2.50
2017-07-09T13:33:34.070Z,2.03
2017-07-09T13:36:00.825Z,2.47
2017-07-09T13:38:26.860Z,2.17
2017-07-09T13:40:52.890Z,1.73
2017-07-09T13:43:19.698Z,1.90
2017-07-09T13:45:45.750Z,1.90
2017-07-09T13:48:11.782Z,1.97
2017-07-09T13:50:37.834Z,2.10
2017-07-09T13:53:04.026Z,1.80
2017-07-09T13:55:30.054Z,2.07
2017-07-09T13:57:56.089Z,1.77
2017-07-09T14:00:22.163Z,1.87
2017-07-09T14:02:48.209Z,2.23
2017-07-09T14:05:14.253Z,1.83
2017-07-09T14:07:40.298Z,1.53
2017-07-09T14:10:06.358Z,2.10
2017-07-09T14:12:32.419Z,1.90
2017-07-09T14:14:58.458Z,1.90
2017-07-09T14:17:24.477Z,1.90
2017-07-09T14:19:50.523Z,1.30
2017-07-09T14:22:16.562Z,1.77
2017-07-09T14:24:42.581Z,3.47
2017-07-09T14:27:08.618Z,1.93
2017-07-09T14:29:34.662Z,1.73
2017-07-09T14:32:00.698Z,1.87
2017-07-09T14:34:27.496Z,2.20
2017-07-09T14:36:53.562Z,1.80
2017-07-09T14:39:19.591Z,1.70
2017-07-09T14:41:45.630Z,1.83
2017-07-09T14:44:11.677Z,1.60
2017-07-09T14:46:38.494Z,1.87
2017-07-09T14:49:05.358Z,1.60
2017-07-09T14:51:31.408Z,2.03
2017-07-09T14:53:57.454Z,2.23
2017-07-09T14:56:23.510Z,1.97
2017-07-09T14:58:49.554Z,2.07
2017-07-09T15:01:16.336Z,2.97
2017-07-09T15:03:42.533Z,4.17
2017-07-09T15:06:08.575Z,2.60
2017-07-09T15:08:34.609Z,2.27
2017-07-09T15:11:01.393Z,1.80
2017-07-09T15:13:27.445Z,2.50
2017-07-09T15:15:54.290Z,5.00
2017-07-09T15:18:20.322Z,7.67
2017-07-09T15:20:46.385Z,3.50
2017-07-09T15:23:13.297Z,1.97
2017-07-09T15:25:39.559Z,2.40
2017-07-09T15:28:05.678Z,2.10
2017-07-09T15:30:31.740Z,2.33
2017-07-09T15:32:57.798Z,2.63
2017-07-09T15:35:23.841Z,7.50
2017-07-09T15:37:49.887Z,2.53
2017-07-09T15:40:15.925Z,3.00
2017-07-09T15:42:41.961Z,2.80
2017-07-09T15:45:08.019Z,2.70
2017-07-09T15:47:34.049Z,3.70
2017-07-09T15:50:00.079Z,2.90
2017-07-09T15:52:26.124Z,2.10
2017-07-09T15:54:52.150Z,2.20
2017-07-09T15:57:18.231Z,2.60
2017-07-09T15:59:44.269Z,2.37
2017-07-09T16:02:10.347Z,2.60
2017-07-09T16:04:36.413Z,2.70
2017-07-09T16:07:02.501Z,9.80
2017-07-09T16:09:28.534Z,3.90
2017-07-09T16:11:54.589Z,6.17
2017-07-09T16:14:21.378Z,3.60
2017-07-09T16:16:47.426Z,3.43
2017-07-09T16:19:13.476Z,3.50
2017-07-09T16:21:39.510Z,2.37
2017-07-09T16:24:05.538Z,3.33
2017-07-09T16:26:31.554Z,2.33
2017-07-09T16:28:57.598Z,3.13
2017-07-09T16:31:23.645Z,2.50
2017-07-09T16:33:49.722Z,2.87
2017-07-09T16:36:15.778Z,3.97
2017-07-09T16:38:41.809Z,3.03
2017-07-09T16:41:07.863Z,2.50
2017-07-09T16:43:33.885Z,3.13
2017-07-09T16:45:59.916Z,2.80
2017-07-09T16:48:25.954Z,2.90
2017-07-09T16:50:52.770Z,2.57
2017-07-09T16:53:19.562Z,1.93
2017-07-09T16:55:45.590Z,1.80
2017-07-09T16:58:13.131Z,2.73
2017-07-09T17:00:39.204Z,2.00
2017-07-09T17:03:12.183Z,2.43
2017-07-09T17:05:38.254Z,2.87
2017-07-09T17:08:05.057Z,2.80
2017-07-09T17:10:31.105Z,2.87
2017-07-09T17:12:57.167Z,2.23
2017-07-09T17:15:23.230Z,2.63
2017-07-09T17:17:49.277Z,3.17
2017-07-09T17:20:15.586Z,2.53
2017-07-09T17:22:41.668Z,2.77
2017-07-09T17:25:07.745Z,2.80
2017-07-09T17:27:34.529Z,2.30
2017-07-09T17:30:00.581Z,2.23
2017-07-09T17:32:26.630Z,2.90
2017-07-09T17:34:52.666Z,2.70
2017-07-09T17:37:18.831Z,2.33
2017-07-09T17:39:44.978Z,4.53
2017-07-09T17:42:11.010Z,8.13
2017-07-09T17:44:37.045Z,5.37
2017-07-09T17:47:03.100Z,3.40
2017-07-09T17:49:29.142Z,3.40
2017-07-09T17:51:55.182Z,2.60
2017-07-09T17:54:21.230Z,3.30
2017-07-09T17:56:47.296Z,3.50
2017-07-09T17:59:13.369Z,6.73
2017-07-09T18:01:39.400Z,7.00
2017-07-09T18:04:06.190Z,5.37
2017-07-09T18:06:32.225Z,4.67
2017-07-09T18:08:59.041Z,3.53
2017-07-09T18:11:25.082Z,3.60
2017-07-09T18:13:51.426Z,3.47
2017-07-09T18:16:17.464Z,2.70
2017-07-09T18:18:43.511Z,3.20
2017-07-09T18:21:09.543Z,3.73
2017-07-09T18:23:35.580Z,3.57
2017-07-09T18:26:01.600Z,4.43
2017-07-09T18:28:27.649Z,4.00
2017-07-09T18:30:53.695Z,3.20
2017-07-09T18:33:19.717Z,4.10
2017-07-09T18:35:45.770Z,4.80
2017-07-09T18:38:12.555Z,4.03
2017-07-09T18:40:38.589Z,3.90
2017-07-09T18:43:05.398Z,3.03
2017-07-09T18:45:31.455Z,2.97
2017-07-09T18:47:57.515Z,3.10
2017-07-09T18:50:23.597Z,3.30
2017-07-09T18:52:49.674Z,3.17
2017-07-09T18:55:15.714Z,3.00
2017-07-09T18:57:41.762Z,3.40
2017-07-09T19:00:07.804Z,3.00
2017-07-09T19:02:33.863Z,3.17
2017-07-09T19:04:59.902Z,3.50
2017-07-09T19:07:25.945Z,3.23
2017-07-09T19:09:52.017Z,3.40
2017-07-09T19:12:18.801Z,2.97
2017-07-09T19:14:44.858Z,3.30
2017-07-09T19:17:11.038Z,3.70
2017-07-09T19:19:37.114Z,2.73
2017-07-09T19:22:03.961Z,2.80
2017-07-09T19:24:30.018Z,3.40
2017-07-09T19:26:56.788Z,3.57
2017-07-09T19:29:22.827Z,3.40
2017-07-09T19:31:48.872Z,3.33
2017-07-09T19:34:14.920Z,3.00
2017-07-09T19:36:40.962Z,3.63
2017-07-09T19:39:07.029Z,3.20
2017-07-09T19:41:33.093Z,3.20
2017-07-09T19:43:59.885Z,2.90
2017-07-09T19:46:25.971Z,3.30
2017-07-09T19:48:52.005Z,2.83
2017-07-09T19:51:18.041Z,4.30
2017-07-09T19:53:44.070Z,3.10
2017-07-09T19:56:10.841Z,2.50
2017-07-09T19:58:36.877Z,3.80
2017-07-09T20:01:02.994Z,3.10
2017-07-09T20:03:29.049Z,3.33
2017-07-09T20:05:55.142Z,3.50
2017-07-09T20:08:21.185Z,4.27
2017-07-09T20:10:47.237Z,4.17
2017-07-09T20:13:14.017Z,4.33
2017-07-09T20:15:40.050Z,4.17
2017-07-09T20:18:06.142Z,4.70
2017-07-09T20:20:32.213Z,4.63
2017-07-09T20:22:58.269Z,4.20
2017-07-09T20:25:24.293Z,4.73
2017-07-09T20:27:50.329Z,4.67
2017-07-09T20:30:17.125Z,4.20
2017-07-09T20:32:43.182Z,4.87
2017-07-09T20:35:09.242Z,5.03
2017-07-09T20:37:35.283Z,5.73
2017-07-09T20:40:02.085Z,4.67
2017-07-09T20:42:28.903Z,4.10
2017-07-09T20:44:54.949Z,4.60
2017-07-09T20:47:20.989Z,5.53
2017-07-09T20:49:47.041Z,5.00
2017-07-09T20:52:13.072Z,4.30
2017-07-09T20:54:39.146Z,4.27
2017-07-09T20:57:05.173Z,4.07
2017-07-09T20:59:31.218Z,4.37
2017-07-09T21:01:57.353Z,3.40
2017-07-09T21:04:23.417Z,3.43
2017-07-09T21:06:49.467Z,3.60
2017-07-09T21:09:15.507Z,4.20
2017-07-09T21:11:41.562Z,3.33
2017-07-09T21:14:07.584Z,3.63
2017-07-09T21:16:33.609Z,3.77
2017-07-09T21:18:59.637Z,3.97
2017-07-09T21:21:25.738Z,4.30
2017-07-09T21:23:51.773Z,3.47
2017-07-09T21:26:17.801Z,3.43
2017-07-09T21:28:43.819Z,3.50
2017-07-09T21:31:09.857Z,4.13
2017-07-09T21:33:35.907Z,3.80
2017-07-09T21:36:02.706Z,3.20
2017-07-09T21:38:28.736Z,3.63
2017-07-09T21:40:54.778Z,4.00
2017-07-09T21:43:20.821Z,4.60
2017-07-09T21:45:46.872Z,3.73
2017-07-09T21:48:13.658Z,4.10
2017-07-09T21:50:39.706Z,4.10
2017-07-09T21:53:06.515Z,3.60
2017-07-09T21:55:33.345Z,3.57
2017-07-09T21:57:59.421Z,4.87
2017-07-09T22:00:25.450Z,2.97
2017-07-09T22:02:51.510Z,3.77
2017-07-09T22:05:17.538Z,3.77
2017-07-09T22:07:43.597Z,4.20
2017-07-09T22:10:09.617Z,4.30
2017-07-09T22:12:36.374Z,3.83
2017-07-09T22:15:02.420Z,4.10
2017-07-09T22:17:28.449Z,3.90
2017-07-09T22:19:54.495Z,5.00
2017-07-09T22:22:20.520Z,3.50
2017-07-09T22:24:46.554Z,4.00
2017-07-09T22:27:13.314Z,3.33
2017-07-09T22:29:39.337Z,3.60
2017-07-09T22:32:05.370Z,3.70
2017-07-09T22:34:32.010Z,4.10
2017-07-09T22:36:58.029Z,3.30
2017-07-09T22:39:24.098Z,3.73
2017-07-09T22:41:50.138Z,3.73
2017-07-09T22:44:16.153Z,3.70
2017-07-09T22:49:09.922Z,3.27
2017-07-09T22:51:35.953Z,3.40
2017-07-09T22:54:02.721Z,4.03
2017-07-09T22:56:28.821Z,3.83
2017-07-09T22:58:54.897Z,3.87
2017-07-09T23:01:21.713Z,3.60
2017-07-09T23:03:48.525Z,4.07
2017-07-09T23:06:14.570Z,3.87
2017-07-09T23:08:41.325Z,4.17
2017-07-09T23:11:07.366Z,3.83
2017-07-09T23:13:33.401Z,4.50
2017-07-09T23:16:00.177Z,3.73
2017-07-09T23:18:26.259Z,4.03
2017-07-09T23:20:52.290Z,4.60
2017-07-09T23:23:18.325Z,4.13
2017-07-09T23:25:51.393Z,3.80
2017-07-09T23:28:17.437Z,4.57
2017-07-09T23:30:43.455Z,3.47
2017-07-09T23:33:10.230Z,3.57
2017-07-09T23:35:36.270Z,4.00
2017-07-09T23:38:03.054Z,4.17
2017-07-09T23:40:29.099Z,3.83
2017-07-09T23:42:55.145Z,3.80
2017-07-09T23:45:21.167Z,3.80
2017-07-09T23:47:47.189Z,4.30
2017-07-09T23:50:13.242Z,3.63
2017-07-09T23:52:40.102Z,4.63
2017-07-09T23:55:06.159Z,3.83
2017-07-09T23:57:32.226Z,4.07
2017-07-09T23:59:58.277Z,3.90
